Time;durP1;ratioP1;P1;durP2;ratioP2;P2;SDS_P1;SDS_P2;PMS_P1;PMS_P2;Temp;Humidity;BMP_temperature;BMP_pressure;BME280_temperature;BME280_humidity;BME280_pressure;Samples;Min_cycle;Max_cycle;Signal;HPM_P1;HPM_P2
2023/08/25 00:26:41;;;;;;;16.03;14.50;;;15.70;99.90;;;;;;4692548;29;20200;-83
2023/08/25 00:47:08;;;;;;;19.77;17.67;;;15.50;99.90;;;;;;4680867;29;20236;-82
2023/08/25 01:16:57;;;;;;;19.83;17.93;;;15.40;99.90;;;;;;4667523;29;21021;-82
2023/08/25 01:37:33;;;;;;;21.83;19.73;;;15.30;99.90;;;;;;4635588;29;20589;-85
2023/08/25 02:12:44;;;;;;;25.13;22.60;;;15.80;99.90;;;;;;4608413;30;20718;-83
2023/08/25 02:38:36;;;;;;;28.87;25.90;;;15.80;99.90;;;;;;4719539;29;20324;-83
2023/08/25 03:09:10;;;;;;;30.83;27.77;;;15.60;99.90;;;;;;4727160;29;20212;-86
2023/08/25 03:29:28;;;;;;;33.77;30.37;;;15.50;99.90;;;;;;4748905;29;20714;-84
2023/08/25 04:19:51;;;;;;;34.70;31.23;;;16.10;99.90;;;;;;4553953;30;20777;-87
2023/08/25 04:40:22;;;;;;;33.10;30.00;;;16.30;99.90;;;;;;4715299;29;20701;-83
2023/08/25 05:00:50;;;;;;;29.10;26.17;;;17.10;99.90;;;;;;4694978;29;20278;-85
2023/08/25 05:05:11;;;;;;;26.63;23.90;;;17.20;99.90;;;;;;4645531;29;21300;-83
2023/08/25 05:25:59;;;;;;;19.77;17.93;;;17.80;99.90;;;;;;4656836;29;21263;-84
2023/08/25 05:55:53;;;;;;;18.77;16.70;;;18.90;99.90;;;;;;4633584;30;20269;-85
2023/08/25 06:16:14;;;;;;;16.17;14.57;;;19.40;99.90;;;;;;4611908;30;20556;-86
2023/08/25 06:37:12;;;;;;;15.83;14.03;;;19.80;99.90;;;;;;4649524;30;20281;-85
2023/08/25 06:41:32;;;;;;;15.30;13.73;;;20.00;99.90;;;;;;4613789;30;20648;-86
2023/08/25 07:02:21;;;;;;;14.40;12.90;;;20.60;99.90;;;;;;4607261;30;21084;-87
2023/08/25 07:22:50;;;;;;;15.05;13.55;;;20.70;99.90;;;;;;4572466;30;20235;-86
2023/08/25 07:53:17;;;;;;;15.50;13.85;;;21.50;99.90;;;;;;4661339;30;20203;-82
2023/08/25 08:18:16;;;;;;;14.27;12.80;;;21.90;99.90;;;;;;4660876;29;20680;-83
2023/08/25 09:14:26;;;;;;;10.02;9.05;;;23.80;92.50;;;;;;4808237;29;20206;-82
2023/08/25 09:49:56;;;;;;;11.50;9.35;;;23.50;90.70;;;;;;4799399;28;20209;-84
2023/08/25 10:20:13;;;;;;;10.10;9.10;;;23.30;92.60;;;;;;4862649;28;20311;-83
2023/08/25 11:16:07;;;;;;;13.00;9.70;;;23.00;95.10;;;;;;4684867;29;20303;-85
2023/08/25 11:41:32;;;;;;;13.00;11.23;;;22.40;99.90;;;;;;4821559;28;20678;-81
2023/08/25 12:06:18;;;;;;;13.02;11.02;;;21.60;99.90;;;;;;4609532;30;20824;-83
2023/08/25 12:47:31;;;;;;;10.43;9.43;;;23.20;99.90;;;;;;4730443;29;20485;-83
2023/08/25 13:17:48;;;;;;;9.50;8.32;;;22.70;99.90;;;;;;4761618;29;20222;-81
2023/08/25 13:43:23;;;;;;;8.13;7.28;;;24.40;95.30;;;;;;4781584;29;20243;-82
2023/08/25 14:03:36;;;;;;;8.20;7.28;;;24.50;94.10;;;;;;4713756;29;20378;-82
2023/08/25 14:33:56;;;;;;;10.52;9.43;;;24.90;92.20;;;;;;4688708;29;20766;-84
2023/08/25 14:54:21;;;;;;;10.50;8.95;;;26.10;90.30;;;;;;4583680;30;20222;-82
2023/08/25 16:15:28;;;;;;;10.18;9.10;;;24.00;99.90;;;;;;4709848;29;20203;-85
2023/08/25 16:51:01;;;;;;;10.90;9.85;;;23.60;99.90;;;;;;4757098;29;20242;-85
2023/08/25 18:11:48;;;;;;;14.27;12.90;;;21.20;99.90;;;;;;4814581;29;20349;-83
2023/08/25 18:47:40;;;;;;;17.13;14.02;;;21.00;99.90;;;;;;4883714;28;20273;-84
2023/08/25 18:52:01;;;;;;;14.90;13.45;;;21.00;99.90;;;;;;4841183;28;20547;-85
2023/08/25 19:12:32;;;;;;;16.27;14.18;;;20.80;99.90;;;;;;4706128;29;20526;-85
2023/08/25 19:33:14;;;;;;;15.17;13.57;;;20.80;99.90;;;;;;4627990;30;20888;-82
2023/08/25 19:58:24;;;;;;;16.00;14.37;;;20.70;99.90;;;;;;4755335;29;20208;-85
2023/08/25 20:18:36;;;;;;;14.45;12.95;;;20.60;99.90;;;;;;4733180;29;20274;-86
2023/08/25 20:49:20;;;;;;;15.85;14.25;;;20.60;99.90;;;;;;4853705;28;20267;-87
2023/08/25 21:14:24;;;;;;;14.80;13.32;;;20.70;99.90;;;;;;4819690;29;21070;-83
2023/08/25 21:35:00;;;;;;;15.60;14.05;;;20.90;99.90;;;;;;4599911;30;20243;-85
2023/08/25 22:05:16;;;;;;;17.02;15.32;;;20.60;99.90;;;;;;4554978;30;20225;-84
2023/08/25 23:06:13;;;;;;;17.77;16.13;;;20.60;99.90;;;;;;4748686;29;21151;-87
2023/08/25 23:41:56;;;;;;;18.88;17.00;;;20.30;99.90;;;;;;4841769;28;20204;-86
2023/08/25 23:46:08;;;;;;;19.95;17.95;;;20.30;99.90;;;;;;4740210;29;20884;-85
